createdAt,value
2022-09-11T00:00:53.982Z,1003.58
2022-09-11T00:01:54.036Z,1003.59
2022-09-11T00:02:53.987Z,1003.61
2022-09-11T00:03:53.954Z,1003.61
2022-09-11T00:04:53.931Z,1003.61
2022-09-11T00:05:53.921Z,1003.62
2022-09-11T00:06:53.896Z,1003.63
2022-09-11T00:07:53.901Z,1003.63
2022-09-11T00:08:53.923Z,1003.64
2022-09-11T00:09:53.880Z,1003.65
2022-09-11T00:10:53.888Z,1003.65
2022-09-11T00:11:53.842Z,1003.65
2022-09-11T00:12:53.839Z,1003.65
2022-09-11T00:13:53.887Z,1003.64
2022-09-11T00:14:53.847Z,1003.63
2022-09-11T00:15:53.861Z,1003.63
2022-09-11T00:16:53.786Z,1003.62
2022-09-11T00:17:53.800Z,1003.61
2022-09-11T00:18:53.784Z,1003.61
2022-09-11T00:19:53.790Z,1003.61
2022-09-11T00:20:53.760Z,1003.61
2022-09-11T00:21:53.751Z,1003.62
2022-09-11T00:22:53.729Z,1003.63
2022-09-11T00:23:53.748Z,1003.65
2022-09-11T00:24:53.731Z,1003.66
2022-09-11T00:25:53.717Z,1003.68
2022-09-11T00:26:53.689Z,1003.70
2022-09-11T00:27:53.679Z,1003.72
2022-09-11T00:28:53.680Z,1003.72
2022-09-11T00:29:53.695Z,1003.72
2022-09-11T00:30:53.643Z,1003.72
2022-09-11T00:31:53.645Z,1003.72
2022-09-11T00:32:53.616Z,1003.73
2022-09-11T00:33:53.633Z,1003.74
2022-09-11T00:34:53.633Z,1003.74
2022-09-11T00:35:53.599Z,1003.75
2022-09-11T00:36:53.609Z,1003.76
2022-09-11T00:37:53.583Z,1003.76
2022-09-11T00:38:53.612Z,1003.76
2022-09-11T00:39:53.593Z,1003.77
2022-09-11T00:40:53.560Z,1003.77
2022-09-11T00:41:53.565Z,1003.77
2022-09-11T00:42:53.539Z,1003.77
2022-09-11T00:43:53.519Z,1003.78
2022-09-11T00:44:53.522Z,1003.79
2022-09-11T00:45:53.554Z,1003.80
2022-09-11T00:46:53.504Z,1003.81
2022-09-11T00:47:53.490Z,1003.83
2022-09-11T00:48:53.457Z,1003.84
2022-09-11T00:49:53.489Z,1003.86
2022-09-11T00:50:53.461Z,1003.88
2022-09-11T00:51:53.465Z,1003.90
2022-09-11T00:52:53.432Z,1003.92
2022-09-11T00:53:53.443Z,1003.93
2022-09-11T00:54:53.398Z,1003.94
2022-09-11T00:55:53.385Z,1003.95
2022-09-11T00:56:53.396Z,1003.96
2022-09-11T00:57:53.383Z,1003.95
2022-09-11T00:58:53.349Z,1003.96
2022-09-11T00:59:53.340Z,1003.97
2022-09-11T01:00:53.339Z,1003.97
2022-09-11T01:01:53.385Z,1003.98
2022-09-11T01:02:53.320Z,1004.00
2022-09-11T01:03:53.305Z,1004.01
2022-09-11T01:04:53.276Z,1004.02
2022-09-11T01:05:53.293Z,1004.04
2022-09-11T01:06:53.295Z,1004.05
2022-09-11T01:07:53.281Z,1004.06
2022-09-11T01:08:53.249Z,1004.08
2022-09-11T01:09:53.253Z,1004.09
2022-09-11T01:10:53.253Z,1004.10
2022-09-11T01:11:53.208Z,1004.11
2022-09-11T01:12:53.241Z,1004.12
2022-09-11T01:13:53.220Z,1004.12
2022-09-11T01:14:53.177Z,1004.13
2022-09-11T01:15:53.232Z,1004.14
2022-09-11T01:16:53.158Z,1004.14
2022-09-11T01:17:53.170Z,1004.15
2022-09-11T01:18:53.198Z,1004.15
2022-09-11T01:19:53.220Z,1004.14
2022-09-11T01:20:53.114Z,1004.14
2022-09-11T01:21:53.161Z,1004.14
2022-09-11T01:22:53.103Z,1004.14
2022-09-11T01:23:53.090Z,1004.13
2022-09-11T01:24:53.073Z,1004.12
2022-09-11T01:25:53.126Z,1004.12
2022-09-11T01:26:53.062Z,1004.11
2022-09-11T01:27:53.106Z,1004.10
2022-09-11T01:28:53.038Z,1004.11
2022-09-11T01:29:53.021Z,1004.13
2022-09-11T01:30:53.005Z,1004.14
2022-09-11T01:31:53.030Z,1004.16
2022-09-11T01:32:53.022Z,1004.18
2022-09-11T01:33:53.007Z,1004.19
2022-09-11T01:34:52.978Z,1004.21
2022-09-11T01:35:52.960Z,1004.22
2022-09-11T01:36:52.951Z,1004.22
2022-09-11T01:37:52.968Z,1004.21
2022-09-11T01:38:52.925Z,1004.21
2022-09-11T01:39:52.972Z,1004.21
2022-09-11T01:40:52.898Z,1004.21
2022-09-11T01:41:52.959Z,1004.21
2022-09-11T01:42:52.894Z,1004.21
2022-09-11T01:43:52.877Z,1004.22
2022-09-11T01:44:52.867Z,1004.23
2022-09-11T01:45:52.923Z,1004.24
2022-09-11T01:46:52.851Z,1004.24
2022-09-11T01:47:52.864Z,1004.24
2022-09-11T01:48:52.826Z,1004.24
2022-09-11T01:49:52.824Z,1004.25
2022-09-11T01:50:52.799Z,1004.25
2022-09-11T01:51:52.798Z,1004.24
2022-09-11T01:52:52.815Z,1004.25
2022-09-11T01:53:52.790Z,1004.25
2022-09-11T01:54:52.766Z,1004.26
2022-09-11T01:55:52.770Z,1004.27
2022-09-11T01:56:52.738Z,1004.28
2022-09-11T01:57:52.768Z,1004.29
2022-09-11T01:58:52.743Z,1004.29
2022-09-11T01:59:52.834Z,1004.29
2022-09-11T02:00:52.730Z,1004.28
2022-09-11T02:01:52.731Z,1004.27
2022-09-11T02:02:52.690Z,1004.26
2022-09-11T02:03:52.676Z,1004.26
2022-09-11T02:04:52.646Z,1004.27
2022-09-11T02:05:52.701Z,1004.28
2022-09-11T02:06:52.636Z,1004.28
2022-09-11T02:07:52.650Z,1004.30
2022-09-11T02:08:52.629Z,1004.31
2022-09-11T02:09:52.612Z,1004.32
2022-09-11T02:10:52.600Z,1004.33
2022-09-11T02:11:52.591Z,1004.33
2022-09-11T02:12:52.572Z,1004.34
2022-09-11T02:13:52.582Z,1004.36
2022-09-11T02:14:52.555Z,1004.37
2022-09-11T02:15:52.572Z,1004.38
2022-09-11T02:16:52.529Z,1004.40
2022-09-11T02:17:52.529Z,1004.40
2022-09-11T02:18:52.529Z,1004.41
2022-09-11T02:19:52.531Z,1004.41
2022-09-11T02:20:52.481Z,1004.41
2022-09-11T02:21:52.487Z,1004.40
2022-09-11T02:22:52.459Z,1004.40
2022-09-11T02:23:52.500Z,1004.40
2022-09-11T02:24:52.431Z,1004.40
2022-09-11T02:25:52.476Z,1004.40
2022-09-11T02:26:52.433Z,1004.41
2022-09-11T02:27:52.411Z,1004.41
2022-09-11T02:28:52.394Z,1004.42
2022-09-11T02:29:52.427Z,1004.42
2022-09-11T02:30:52.371Z,1004.43
2022-09-11T02:31:52.379Z,1004.44
2022-09-11T02:32:52.347Z,1004.46
2022-09-11T02:33:52.361Z,1004.48
2022-09-11T02:34:52.354Z,1004.49
2022-09-11T02:35:52.356Z,1004.50
2022-09-11T02:36:52.333Z,1004.51
2022-09-11T02:37:52.311Z,1004.50
2022-09-11T02:38:52.296Z,1004.49
2022-09-11T02:39:52.385Z,1004.50
2022-09-11T02:40:52.259Z,1004.50
2022-09-11T02:41:52.281Z,1004.51
2022-09-11T02:42:52.262Z,1004.52
2022-09-11T02:43:52.240Z,1004.52
2022-09-11T02:44:52.242Z,1004.53
2022-09-11T02:45:52.268Z,1004.52
2022-09-11T02:46:52.200Z,1004.52
2022-09-11T02:47:52.214Z,1004.52
2022-09-11T02:48:52.200Z,1004.52
2022-09-11T02:49:52.195Z,1004.53
2022-09-11T02:50:52.214Z,1004.54
2022-09-11T02:51:52.164Z,1004.55
2022-09-11T02:52:52.142Z,1004.57
2022-09-11T02:53:52.144Z,1004.58
2022-09-11T02:54:52.121Z,1004.58
2022-09-11T02:55:52.134Z,1004.59
2022-09-11T02:56:52.148Z,1004.59
2022-09-11T02:57:52.098Z,1004.60
2022-09-11T02:58:52.080Z,1004.61
2022-09-11T02:59:52.078Z,1004.61
2022-09-11T03:00:52.093Z,1004.62
2022-09-11T03:01:52.116Z,1004.63
2022-09-11T03:02:52.066Z,1004.63
2022-09-11T03:03:52.034Z,1004.65
2022-09-11T03:04:52.005Z,1004.65
2022-09-11T03:05:52.043Z,1004.65
2022-09-11T03:06:52.072Z,1004.67
2022-09-11T03:07:51.990Z,1004.68
2022-09-11T03:08:52.027Z,1004.68
2022-09-11T03:09:51.982Z,1004.69
2022-09-11T03:10:51.974Z,1004.68
2022-09-11T03:11:51.951Z,1004.67
2022-09-11T03:12:51.925Z,1004.66
2022-09-11T03:13:51.931Z,1004.63
2022-09-11T03:14:51.908Z,1004.61
2022-09-11T03:15:52.011Z,1004.60
2022-09-11T03:16:51.946Z,1004.59
2022-09-11T03:17:51.902Z,1004.58
2022-09-11T03:18:51.876Z,1004.58
2022-09-11T03:19:51.857Z,1004.58
2022-09-11T03:20:51.853Z,1004.57
2022-09-11T03:21:51.892Z,1004.57
2022-09-11T03:22:51.868Z,1004.56
2022-09-11T03:23:51.824Z,1004.55
2022-09-11T03:24:51.798Z,1004.55
2022-09-11T03:25:51.867Z,1004.54
2022-09-11T03:26:51.791Z,1004.54
2022-09-11T03:27:51.794Z,1004.54
2022-09-11T03:28:51.808Z,1004.54
2022-09-11T03:29:51.771Z,1004.56
2022-09-11T03:30:51.738Z,1004.58
2022-09-11T03:31:51.850Z,1004.60
2022-09-11T03:32:51.730Z,1004.62
2022-09-11T03:33:51.723Z,1004.64
2022-09-11T03:34:51.705Z,1004.65
2022-09-11T03:35:51.698Z,1004.68
2022-09-11T03:36:51.728Z,1004.70
2022-09-11T03:37:51.703Z,1004.72
2022-09-11T03:38:51.675Z,1004.72
2022-09-11T03:39:51.731Z,1004.73
2022-09-11T03:40:51.638Z,1004.71
2022-09-11T03:41:51.659Z,1004.70
2022-09-11T03:42:51.674Z,1004.69
2022-09-11T03:43:51.619Z,1004.69
2022-09-11T03:44:51.616Z,1004.69
2022-09-11T03:45:51.655Z,1004.69
2022-09-11T03:46:51.580Z,1004.69
2022-09-11T03:47:51.587Z,1004.71
2022-09-11T03:48:51.547Z,1004.72
2022-09-11T03:49:51.560Z,1004.74
2022-09-11T03:50:51.557Z,1004.75
2022-09-11T03:51:51.530Z,1004.76
2022-09-11T03:52:51.533Z,1004.77
2022-09-11T03:53:51.507Z,1004.77
2022-09-11T03:54:51.507Z,1004.78
2022-09-11T03:55:51.500Z,1004.79
2022-09-11T03:56:51.468Z,1004.80
2022-09-11T03:57:51.497Z,1004.81
2022-09-11T03:58:51.461Z,1004.81
2022-09-11T03:59:51.460Z,1004.81
2022-09-11T04:00:51.526Z,1004.81
2022-09-11T04:01:51.493Z,1004.81
2022-09-11T04:02:51.444Z,1004.82
2022-09-11T04:03:51.438Z,1004.83
2022-09-11T04:04:51.408Z,1004.84
2022-09-11T04:05:51.397Z,1004.87
2022-09-11T04:06:51.382Z,1004.90
2022-09-11T04:07:51.407Z,1004.92
2022-09-11T04:08:51.357Z,1004.92
2022-09-11T04:09:51.388Z,1004.92
2022-09-11T04:10:51.351Z,1004.92
2022-09-11T04:11:51.340Z,1004.92
2022-09-11T04:12:51.303Z,1004.92
2022-09-11T04:13:51.315Z,1004.93
2022-09-11T04:14:51.308Z,1004.94
2022-09-11T04:15:51.279Z,1004.95
2022-09-11T04:16:51.267Z,1004.96
2022-09-11T04:17:51.290Z,1004.99
2022-09-11T04:18:51.285Z,1005.01
2022-09-11T04:19:51.274Z,1005.03
2022-09-11T04:20:51.231Z,1005.03
2022-09-11T04:21:51.260Z,1005.04
2022-09-11T04:22:51.270Z,1005.05
2022-09-11T04:23:51.216Z,1005.07
2022-09-11T04:24:51.207Z,1005.08
2022-09-11T04:25:51.222Z,1005.09
2022-09-11T04:26:51.176Z,1005.10
2022-09-11T04:27:51.158Z,1005.11
2022-09-11T04:28:51.164Z,1005.11
2022-09-11T04:29:51.155Z,1005.11
2022-09-11T04:30:51.127Z,1005.10
2022-09-11T04:31:51.197Z,1005.10
2022-09-11T04:32:51.122Z,1005.10
2022-09-11T04:33:53.835Z,1005.11
2022-09-11T04:34:51.136Z,1005.12
2022-09-11T04:35:51.142Z,1005.13
2022-09-11T04:36:51.321Z,1005.14
2022-09-11T04:37:51.072Z,1005.16
2022-09-11T04:38:51.071Z,1005.16
2022-09-11T04:39:51.064Z,1005.16
2022-09-11T04:40:51.075Z,1005.16
2022-09-11T04:41:50.976Z,1005.16
2022-09-11T04:42:50.949Z,1005.16
2022-09-11T04:43:50.940Z,1005.16
2022-09-11T04:44:50.945Z,1005.16
2022-09-11T04:45:50.939Z,1005.17
2022-09-11T04:46:50.905Z,1005.18
2022-09-11T04:47:50.889Z,1005.20
2022-09-11T04:48:50.880Z,1005.21
2022-09-11T04:49:50.897Z,1005.22
2022-09-11T04:50:50.881Z,1005.22
2022-09-11T04:51:50.857Z,1005.22
2022-09-11T04:52:50.855Z,1005.23
2022-09-11T04:53:50.832Z,1005.23
2022-09-11T04:54:50.839Z,1005.23
2022-09-11T04:55:50.809Z,1005.22
2022-09-11T04:56:50.803Z,1005.20
2022-09-11T04:57:50.807Z,1005.19
2022-09-11T04:58:50.840Z,1005.20
2022-09-11T04:59:50.789Z,1005.21
2022-09-11T05:00:50.810Z,1005.22
2022-09-11T05:01:50.789Z,1005.23
2022-09-11T05:02:50.742Z,1005.25
2022-09-11T05:03:50.783Z,1005.27
2022-09-11T05:04:50.741Z,1005.26
2022-09-11T05:05:50.725Z,1005.27
2022-09-11T05:06:50.698Z,1005.27
2022-09-11T05:07:50.679Z,1005.28
2022-09-11T05:08:50.716Z,1005.27
2022-09-11T05:09:50.676Z,1005.27
2022-09-11T05:10:50.666Z,1005.26
2022-09-11T05:11:50.639Z,1005.26
2022-09-11T05:12:50.643Z,1005.26
2022-09-11T05:13:50.624Z,1005.26
2022-09-11T05:14:50.664Z,1005.27
2022-09-11T05:15:50.602Z,1005.28
2022-09-11T05:16:50.607Z,1005.29
2022-09-11T05:17:50.574Z,1005.29
2022-09-11T05:18:50.578Z,1005.30
2022-09-11T05:19:50.558Z,1005.31
2022-09-11T05:20:50.581Z,1005.32
2022-09-11T05:21:50.556Z,1005.32
2022-09-11T05:22:50.534Z,1005.32
2022-09-11T05:23:50.535Z,1005.33
2022-09-11T05:24:50.509Z,1005.34
2022-09-11T05:25:50.523Z,1005.35
2022-09-11T05:26:50.527Z,1005.36
2022-09-11T05:27:50.473Z,1005.37
2022-09-11T05:28:50.532Z,1005.37
2022-09-11T05:29:50.473Z,1005.38
2022-09-11T05:30:50.454Z,1005.39
2022-09-11T05:31:50.483Z,1005.41
2022-09-11T05:32:50.442Z,1005.41
2022-09-11T05:33:50.499Z,1005.42
2022-09-11T05:34:50.552Z,1005.43
2022-09-11T05:35:50.409Z,1005.43
2022-09-11T05:36:50.437Z,1005.46
2022-09-11T05:37:50.368Z,1005.47
2022-09-11T05:38:50.360Z,1005.49
2022-09-11T05:39:50.401Z,1005.50
2022-09-11T05:40:50.368Z,1005.52
2022-09-11T05:41:50.365Z,1005.52
2022-09-11T05:42:50.328Z,1005.53
2022-09-11T05:43:50.311Z,1005.53
2022-09-11T05:44:50.317Z,1005.55
2022-09-11T05:45:50.311Z,1005.56
2022-09-11T05:46:50.312Z,1005.59
2022-09-11T05:47:53.159Z,1005.62
2022-09-11T05:48:50.277Z,1005.64
2022-09-11T05:49:50.275Z,1005.67
2022-09-11T05:50:50.266Z,1005.69
2022-09-11T05:51:50.227Z,1005.70
2022-09-11T05:52:50.301Z,1005.72
2022-09-11T05:53:50.196Z,1005.73
2022-09-11T05:54:50.240Z,1005.74
2022-09-11T05:55:50.193Z,1005.75
2022-09-11T05:56:50.187Z,1005.76
2022-09-11T05:57:50.180Z,1005.78
2022-09-11T05:58:50.215Z,1005.79
2022-09-11T05:59:50.143Z,1005.80
2022-09-11T06:00:50.224Z,1005.82
2022-09-11T06:01:55.503Z,1005.83
2022-09-11T06:02:50.131Z,1005.84
2022-09-11T06:03:50.127Z,1005.84
2022-09-11T06:04:50.150Z,1005.86
2022-09-11T06:05:50.079Z,1005.86
2022-09-11T06:06:50.232Z,1005.87
2022-09-11T06:07:50.058Z,1005.87
2022-09-11T06:08:50.084Z,1005.88
2022-09-11T06:09:50.059Z,1005.89
2022-09-11T06:10:50.043Z,1005.91
2022-09-11T06:11:50.056Z,1005.91
2022-09-11T06:12:50.011Z,1005.91
2022-09-11T06:13:50.007Z,1005.93
2022-09-11T06:14:50.025Z,1005.94
2022-09-11T06:15:49.986Z,1005.95
2022-09-11T06:16:50.055Z,1005.97
2022-09-11T06:17:49.950Z,1005.97
2022-09-11T06:18:50.164Z,1005.98
2022-09-11T06:19:49.964Z,1005.99
2022-09-11T06:20:49.938Z,1005.99
2022-09-11T06:21:49.919Z,1006.00
2022-09-11T06:22:49.935Z,1006.02
2022-09-11T06:23:49.902Z,1006.03
2022-09-11T06:24:49.911Z,1006.04
2022-09-11T06:25:49.874Z,1006.05
2022-09-11T06:26:49.880Z,1006.07
2022-09-11T06:27:49.869Z,1006.07
2022-09-11T06:28:49.848Z,1006.09
2022-09-11T06:29:49.903Z,1006.09
2022-09-11T06:30:49.915Z,1006.09
2022-09-11T06:31:49.847Z,1006.09
2022-09-11T06:32:49.819Z,1006.09
2022-09-11T06:33:49.803Z,1006.10
2022-09-11T06:34:49.809Z,1006.10
2022-09-11T06:35:49.787Z,1006.11
2022-09-11T06:36:52.177Z,1006.11
2022-09-11T06:37:49.772Z,1006.11
2022-09-11T06:38:49.759Z,1006.12
2022-09-11T06:39:49.791Z,1006.13
2022-09-11T06:40:49.779Z,1006.13
2022-09-11T06:41:49.699Z,1006.13
2022-09-11T06:42:49.723Z,1006.13
2022-09-11T06:43:49.690Z,1006.13
2022-09-11T06:44:50.912Z,1006.13
2022-09-11T06:45:49.728Z,1006.13
2022-09-11T06:46:49.697Z,1006.12
2022-09-11T06:47:49.678Z,1006.12
2022-09-11T06:48:49.626Z,1006.12
2022-09-11T06:49:49.642Z,1006.13
2022-09-11T06:50:49.639Z,1006.14
2022-09-11T06:51:49.653Z,1006.15
2022-09-11T06:52:49.633Z,1006.16
2022-09-11T06:53:49.594Z,1006.16
2022-09-11T06:54:49.593Z,1006.17
2022-09-11T06:55:49.575Z,1006.17
2022-09-11T06:56:49.549Z,1006.16
2022-09-11T06:57:49.532Z,1006.16
2022-09-11T06:58:49.583Z,1006.16
2022-09-11T06:59:49.537Z,1006.17
2022-09-11T07:00:49.606Z,1006.18
2022-09-11T07:01:49.657Z,1006.18
2022-09-11T07:02:49.510Z,1006.19
2022-09-11T07:03:49.487Z,1006.20
2022-09-11T07:04:49.518Z,1006.21
2022-09-11T07:05:49.520Z,1006.21
2022-09-11T07:06:49.483Z,1006.22
2022-09-11T07:07:49.463Z,1006.23
2022-09-11T07:08:49.447Z,1006.24
2022-09-11T07:09:49.441Z,1006.24
2022-09-11T07:10:49.577Z,1006.23
2022-09-11T07:11:49.417Z,1006.22
2022-09-11T07:12:49.418Z,1006.22
2022-09-11T07:13:49.384Z,1006.21
2022-09-11T07:14:49.452Z,1006.22
2022-09-11T07:15:49.431Z,1006.22
2022-09-11T07:16:49.416Z,1006.22
2022-09-11T07:17:49.322Z,1006.24
2022-09-11T07:18:49.338Z,1006.24
2022-09-11T07:19:49.363Z,1006.24
2022-09-11T07:20:49.305Z,1006.23
2022-09-11T07:21:49.339Z,1006.22
2022-09-11T07:22:49.295Z,1006.21
2022-09-11T07:23:49.270Z,1006.21
2022-09-11T07:24:49.263Z,1006.20
2022-09-11T07:25:49.237Z,1006.21
2022-09-11T07:26:49.286Z,1006.22
2022-09-11T07:27:49.218Z,1006.22
2022-09-11T07:28:49.264Z,1006.24
2022-09-11T07:29:49.227Z,1006.25
2022-09-11T07:30:49.240Z,1006.27
2022-09-11T07:31:49.320Z,1006.28
2022-09-11T07:32:49.227Z,1006.31
2022-09-11T07:33:49.163Z,1006.33
2022-09-11T07:34:49.179Z,1006.34
2022-09-11T07:35:49.158Z,1006.36
2022-09-11T07:36:49.181Z,1006.36
2022-09-11T07:37:50.938Z,1006.37
2022-09-11T07:38:49.179Z,1006.38
2022-09-11T07:39:49.182Z,1006.38
2022-09-11T07:40:49.151Z,1006.38
2022-09-11T07:41:49.113Z,1006.37
2022-09-11T07:42:49.149Z,1006.37
2022-09-11T07:43:49.136Z,1006.36
2022-09-11T07:44:49.063Z,1006.36
2022-09-11T07:45:49.054Z,1006.38
2022-09-11T07:46:49.044Z,1006.38
2022-09-11T07:47:49.042Z,1006.40
2022-09-11T07:48:49.055Z,1006.40
2022-09-11T07:49:49.019Z,1006.42
2022-09-11T07:50:49.001Z,1006.44
2022-09-11T07:51:49.028Z,1006.45
2022-09-11T07:52:48.963Z,1006.47
2022-09-11T07:53:48.988Z,1006.49
2022-09-11T07:54:48.980Z,1006.49
2022-09-11T07:55:48.941Z,1006.49
2022-09-11T07:56:48.952Z,1006.48
2022-09-11T07:57:49.003Z,1006.48
2022-09-11T07:58:48.936Z,1006.48
2022-09-11T07:59:48.879Z,1006.49
2022-09-11T08:00:49.017Z,1006.50
2022-09-11T08:01:48.870Z,1006.50
2022-09-11T08:02:48.845Z,1006.50
2022-09-11T08:03:48.867Z,1006.51
2022-09-11T08:04:48.922Z,1006.50
2022-09-11T08:05:48.839Z,1006.51
2022-09-11T08:06:48.882Z,1006.51
2022-09-11T08:07:48.818Z,1006.52
2022-09-11T08:08:48.818Z,1006.53
2022-09-11T08:09:56.053Z,1006.53
2022-09-11T08:10:48.797Z,1006.53
2022-09-11T08:11:48.864Z,1006.52
2022-09-11T08:12:48.746Z,1006.52
2022-09-11T08:13:48.725Z,1006.52
2022-09-11T08:14:48.835Z,1006.54
2022-09-11T08:15:48.717Z,1006.54
2022-09-11T08:16:48.823Z,1006.55
2022-09-11T08:17:48.710Z,1006.56
2022-09-11T08:18:48.760Z,1006.57
2022-09-11T08:19:48.802Z,1006.58
2022-09-11T08:20:48.673Z,1006.59
2022-09-11T08:21:48.654Z,1006.59
2022-09-11T08:22:48.668Z,1006.60
2022-09-11T08:23:48.627Z,1006.60
2022-09-11T08:24:48.728Z,1006.61
2022-09-11T08:25:48.651Z,1006.62
2022-09-11T08:26:49.248Z,1006.63
2022-09-11T08:27:48.720Z,1006.65
2022-09-11T08:28:48.585Z,1006.67
2022-09-11T08:29:48.692Z,1006.67
2022-09-11T08:30:48.630Z,1006.69
2022-09-11T08:31:48.580Z,1006.70
2022-09-11T08:32:48.636Z,1006.71
2022-09-11T08:33:48.565Z,1006.71
2022-09-11T08:34:48.554Z,1006.73
2022-09-11T08:35:48.524Z,1006.75
2022-09-11T08:36:48.493Z,1006.76
2022-09-11T08:37:51.660Z,1006.78
2022-09-11T08:38:48.527Z,1006.79
2022-09-11T08:39:48.505Z,1006.81
2022-09-11T08:40:48.620Z,1006.81
2022-09-11T08:41:48.502Z,1006.83
2022-09-11T08:42:48.457Z,1006.85
2022-09-11T08:43:48.452Z,1006.87
2022-09-11T08:44:48.465Z,1006.87
2022-09-11T08:45:48.431Z,1006.88
2022-09-11T08:46:48.395Z,1006.89
2022-09-11T08:47:48.446Z,1006.89
2022-09-11T08:48:48.394Z,1006.89
2022-09-11T08:49:48.376Z,1006.90
2022-09-11T08:50:48.351Z,1006.91
2022-09-11T08:51:48.353Z,1006.92
2022-09-11T08:52:48.321Z,1006.93
2022-09-11T08:53:48.312Z,1006.94
2022-09-11T08:54:48.308Z,1006.96
2022-09-11T08:55:48.311Z,1006.96
2022-09-11T08:56:48.323Z,1006.97
2022-09-11T08:57:48.276Z,1006.97
2022-09-11T08:58:48.260Z,1006.98
2022-09-11T08:59:48.343Z,1006.99
2022-09-11T09:00:48.244Z,1007.00
2022-09-11T09:01:48.403Z,1007.01
2022-09-11T09:02:48.207Z,1007.02
2022-09-11T09:03:48.211Z,1007.05
2022-09-11T09:04:48.218Z,1007.07
2022-09-11T09:05:48.196Z,1007.09
2022-09-11T09:06:48.189Z,1007.10
2022-09-11T09:07:48.214Z,1007.10
2022-09-11T09:08:48.148Z,1007.09
2022-09-11T09:09:48.162Z,1007.09
2022-09-11T09:10:48.122Z,1007.09
2022-09-11T09:11:48.136Z,1007.10
2022-09-11T09:12:48.098Z,1007.12
2022-09-11T09:13:48.117Z,1007.12
2022-09-11T09:14:48.079Z,1007.14
2022-09-11T09:15:48.151Z,1007.14
2022-09-11T09:16:48.156Z,1007.14
2022-09-11T09:17:48.046Z,1007.15
2022-09-11T09:18:48.041Z,1007.14
2022-09-11T09:19:48.080Z,1007.15
2022-09-11T09:20:48.015Z,1007.16
2022-09-11T09:21:48.018Z,1007.17
2022-09-11T09:22:48.026Z,1007.17
2022-09-11T09:23:48.020Z,1007.16
2022-09-11T09:24:47.998Z,1007.16
2022-09-11T09:25:48.014Z,1007.16
2022-09-11T09:26:47.944Z,1007.15
2022-09-11T09:27:47.951Z,1007.15
2022-09-11T09:28:47.931Z,1007.16
2022-09-11T09:29:47.960Z,1007.17
2022-09-11T09:30:47.946Z,1007.17
2022-09-11T09:31:47.909Z,1007.18
2022-09-11T09:32:47.916Z,1007.18
2022-09-11T09:33:47.918Z,1007.19
2022-09-11T09:34:47.889Z,1007.20
2022-09-11T09:35:47.914Z,1007.20
2022-09-11T09:36:47.896Z,1007.21
2022-09-11T09:37:47.861Z,1007.21
2022-09-11T09:38:47.848Z,1007.22
2022-09-11T09:39:47.909Z,1007.21
2022-09-11T09:40:47.851Z,1007.21
2022-09-11T09:41:47.855Z,1007.21
2022-09-11T09:42:47.822Z,1007.21
2022-09-11T09:43:47.841Z,1007.21
2022-09-11T09:44:47.833Z,1007.23
2022-09-11T09:45:47.857Z,1007.23
2022-09-11T09:46:51.037Z,1007.23
2022-09-11T09:47:47.778Z,1007.23
2022-09-11T09:48:47.776Z,1007.23
2022-09-11T09:49:47.769Z,1007.23
2022-09-11T09:50:47.741Z,1007.23
2022-09-11T09:51:47.836Z,1007.23
2022-09-11T09:52:47.722Z,1007.24
2022-09-11T09:53:47.772Z,1007.24
2022-09-11T09:54:47.935Z,1007.24
2022-09-11T09:55:47.776Z,1007.24
2022-09-11T09:56:47.717Z,1007.24
2022-09-11T09:57:47.805Z,1007.24
2022-09-11T09:58:47.674Z,1007.24
2022-09-11T09:59:47.632Z,1007.23
2022-09-11T10:00:47.649Z,1007.23
2022-09-11T10:01:47.813Z,1007.22
2022-09-11T10:02:47.663Z,1007.22
2022-09-11T10:03:47.621Z,1007.21
2022-09-11T10:04:47.704Z,1007.20
2022-09-11T10:05:47.630Z,1007.20
2022-09-11T10:06:47.653Z,1007.20
2022-09-11T10:07:47.559Z,1007.21
2022-09-11T10:08:47.533Z,1007.22
2022-09-11T10:09:47.562Z,1007.22
2022-09-11T10:10:47.568Z,1007.22
2022-09-11T10:11:47.509Z,1007.22
2022-09-11T10:12:47.528Z,1007.23
2022-09-11T10:13:47.529Z,1007.23
2022-09-11T10:14:51.401Z,1007.23
2022-09-11T10:15:47.537Z,1007.23
2022-09-11T10:16:47.478Z,1007.22
2022-09-11T10:17:47.460Z,1007.22
2022-09-11T10:18:47.452Z,1007.23
2022-09-11T10:19:47.499Z,1007.23
2022-09-11T10:20:47.468Z,1007.24
2022-09-11T10:21:47.433Z,1007.23
2022-09-11T10:22:47.404Z,1007.22
2022-09-11T10:23:47.417Z,1007.21
2022-09-11T10:24:47.395Z,1007.21
2022-09-11T10:25:47.456Z,1007.21
2022-09-11T10:26:47.440Z,1007.20
2022-09-11T10:27:47.378Z,1007.19
2022-09-11T10:28:47.384Z,1007.19
2022-09-11T10:29:47.333Z,1007.19
2022-09-11T10:30:47.356Z,1007.20
2022-09-11T10:31:47.388Z,1007.19
2022-09-11T10:32:47.326Z,1007.19
2022-09-11T10:33:47.273Z,1007.19
2022-09-11T10:34:47.273Z,1007.18
2022-09-11T10:35:47.283Z,1007.17
2022-09-11T10:36:47.233Z,1007.14
2022-09-11T10:37:47.218Z,1007.13
2022-09-11T10:38:47.442Z,1007.13
2022-09-11T10:39:47.304Z,1007.11
2022-09-11T10:40:47.202Z,1007.10
2022-09-11T10:41:47.201Z,1007.10
2022-09-11T10:42:47.159Z,1007.09
2022-09-11T10:43:47.158Z,1007.09
2022-09-11T10:44:47.185Z,1007.10
2022-09-11T10:45:47.270Z,1007.10
2022-09-11T10:46:47.144Z,1007.08
2022-09-11T10:47:47.163Z,1007.09
2022-09-11T10:48:47.112Z,1007.07
2022-09-11T10:49:47.102Z,1007.07
2022-09-11T10:50:47.142Z,1007.07
2022-09-11T10:51:47.717Z,1007.07
2022-09-11T10:52:47.122Z,1007.07
2022-09-11T10:53:47.048Z,1007.10
2022-09-11T10:54:47.026Z,1007.10
2022-09-11T10:55:47.061Z,1007.11
2022-09-11T10:56:47.067Z,1007.10
2022-09-11T10:57:47.083Z,1007.11
2022-09-11T10:58:47.006Z,1007.10
2022-09-11T10:59:47.000Z,1007.12
2022-09-11T11:00:46.994Z,1007.11
2022-09-11T11:01:47.111Z,1007.11
2022-09-11T11:02:46.980Z,1007.12
2022-09-11T11:03:46.976Z,1007.12
2022-09-11T11:04:46.966Z,1007.12
2022-09-11T11:05:46.971Z,1007.12
2022-09-11T11:06:46.937Z,1007.12
2022-09-11T11:07:46.939Z,1007.11
2022-09-11T11:08:46.900Z,1007.11
2022-09-11T11:09:46.887Z,1007.09
2022-09-11T11:10:46.867Z,1007.07
2022-09-11T11:11:46.872Z,1007.08
2022-09-11T11:12:46.842Z,1007.09
2022-09-11T11:13:46.877Z,1007.10
2022-09-11T11:14:46.824Z,1007.11
2022-09-11T11:15:46.844Z,1007.10
2022-09-11T11:16:46.808Z,1007.10
2022-09-11T11:17:46.800Z,1007.09
2022-09-11T11:18:46.804Z,1007.08
2022-09-11T11:19:46.803Z,1007.07
2022-09-11T11:20:46.762Z,1007.08
2022-09-11T11:21:46.767Z,1007.09
2022-09-11T11:22:46.747Z,1007.10
2022-09-11T11:23:46.777Z,1007.11
2022-09-11T11:24:46.748Z,1007.12
2022-09-11T11:25:46.735Z,1007.12
2022-09-11T11:26:46.701Z,1007.12
2022-09-11T11:27:46.713Z,1007.12
2022-09-11T11:28:46.733Z,1007.13
2022-09-11T11:29:46.693Z,1007.13
2022-09-11T11:30:46.718Z,1007.13
2022-09-11T11:31:46.687Z,1007.13
2022-09-11T11:32:46.689Z,1007.12
2022-09-11T11:33:46.696Z,1007.13
2022-09-11T11:34:46.852Z,1007.14
2022-09-11T11:35:46.645Z,1007.13
2022-09-11T11:36:46.605Z,1007.12
2022-09-11T11:37:46.609Z,1007.12
2022-09-11T11:38:46.600Z,1007.12
2022-09-11T11:39:46.637Z,1007.12
2022-09-11T11:40:46.588Z,1007.10
2022-09-11T11:41:46.574Z,1007.07
2022-09-11T11:42:46.550Z,1007.06
2022-09-11T11:43:46.553Z,1007.05
2022-09-11T11:44:46.597Z,1007.05
2022-09-11T11:45:46.740Z,1007.06
2022-09-11T11:46:46.503Z,1007.07
2022-09-11T11:47:46.541Z,1007.11
2022-09-11T11:48:46.487Z,1007.12
2022-09-11T11:49:46.528Z,1007.14
2022-09-11T11:50:46.484Z,1007.14
2022-09-11T11:51:46.491Z,1007.15
2022-09-11T11:52:46.452Z,1007.15
2022-09-11T11:53:46.452Z,1007.17
2022-09-11T11:54:46.587Z,1007.18
2022-09-11T11:55:46.437Z,1007.21
2022-09-11T11:56:46.403Z,1007.23
2022-09-11T11:57:46.408Z,1007.24
2022-09-11T11:58:46.379Z,1007.25
2022-09-11T11:59:46.422Z,1007.25
2022-09-11T12:00:46.386Z,1007.26
2022-09-11T12:01:46.382Z,1007.26
2022-09-11T12:02:46.338Z,1007.26
2022-09-11T12:03:46.454Z,1007.25
2022-09-11T12:04:46.410Z,1007.25
2022-09-11T12:05:46.355Z,1007.23